Data for 01/24/2010

Time Sea-Level Adjusted Pressure Absolute Pressure Temperature Relative Humidity Dew Point   
(mb) (inHg) (mb) (inHg) (C) (F) (%) (C) (F)
00:05 1014 29.94 843 24.89 -8.4 16.9 90 -9.7 14.6
00:10 1014 29.94 843 24.89 -8.4 16.9 90 -9.8 14.4
00:15 1014 29.94 843 24.89 -8.5 16.8 90 -9.8 14.4
00:20 1014 29.94 843 24.89 -8.4 16.9 89 -9.9 14.2
00:25 1014 29.94 843 24.89 -8.5 16.8 89 -9.9 14.2
00:30 1014 29.94 843 24.89 -8.4 16.8 89 -9.9 14.1
00:35 1014 29.94 843 24.89 -8.5 16.8 89 -10 14.1
00:40 1014 29.94 843 24.89 -8.5 16.7 89 -10.1 13.9
00:45 1014 29.94 844 24.92 -8.4 16.8 88 -10.1 13.8
00:50 1014 29.94 844 24.92 -8.4 16.9 88 -10.1 13.9
00:55 1014 29.94 844 24.92 -8.4 16.9 88 -10.1 13.9
01:00 1015 29.97 844 24.92 -8.4 16.9 88 -10 14
01:05 1015 29.97 844 24.92 -8.3 17.1 88 -9.9 14.2
01:10 1015 29.97 844 24.92 -8.6 16.5 92 -9.7 14.5
01:15 1015 29.97 844 24.92 -8.7 16.4 92 -9.8 14.4
01:20 1015 29.97 844 24.92 -8.6 16.5 91 -9.8 14.4
01:25 1015 29.97 844 24.92 -8.7 16.3 92 -9.8 14.4
01:30 1015 29.97 844 24.92 -8.7 16.4 92 -9.8 14.4
01:35 1015 29.97 844 24.92 -8.8 16.2 92 -9.8 14.3
01:40 1015 29.97 844 24.92 -8.9 16 93 -9.8 14.4
01:45 1015 29.97 844 24.92 -8.7 16.4 92 -9.7 14.5
01:50 1015 29.97 844 24.92 -8.8 16.2 92 -9.8 14.3
01:55 1015 29.97 844 24.92 -8.8 16.2 92 -9.9 14.2
02:00 1015 29.97 845 24.95 -8.8 16.2 92 -9.9 14.2
02:05 1015 29.97 845 24.95 -8.8 16.2 92 -9.9 14.2
02:10 1016 30 845 24.95 -8.8 16.2 92 -9.9 14.1
02:15 1016 30 845 24.95 -8.8 16.1 92 -9.9 14.1
02:20 1016 30 845 24.95 -8.8 16.1 92 -10 14.1
02:25 1016 30 845 24.95 -8.8 16.1 91 -10 14
02:30 1016 30 845 24.95 -8.8 16.1 91 -10 14
02:35 1016 30 845 24.95 -8.8 16.2 91 -10 14
02:40 1016 30 845 24.95 -8.8 16.2 91 -10 14
02:45 1016 30 845 24.95 -8.8 16.1 91 -10.1 13.8
02:50 1016 30 845 24.95 -8.9 16 91 -10.2 13.7
02:55 1016 30 845 24.95 -8.9 15.9 91 -10.2 13.6
03:00 1016 30 845 24.95 -8.9 16 91 -10.2 13.7
03:05 1016 30 845 24.95 -9 15.9 91 -10.2 13.6
03:10 1016 30 845 24.95 -9 15.8 90 -10.3 13.5
03:15 1016 30 845 24.95 -9 15.8 90 -10.3 13.4
03:20 1016 30 845 24.95 -9 15.7 91 -10.3 13.5
03:25 1016 30 846 24.98 -9.1 15.7 91 -10.3 13.4
03:30 1016 30 846 24.98 -9.1 15.7 91 -10.3 13.4
03:35 1016 30 846 24.98 -9 15.8 90 -10.3 13.4
03:40 1016 30 846 24.98 -9.1 15.7 91 -10.3 13.4
03:45 1017 30.03 846 24.98 -9.1 15.7 91 -10.3 13.4
03:50 1017 30.03 846 24.98 -9.2 15.5 91 -10.4 13.3
03:55 1017 30.03 846 24.98 -9.2 15.5 91 -10.4 13.3
04:00 1017 30.03 846 24.98 -9.3 15.4 91 -10.4 13.2
04:05 1017 30.03 846 24.98 -9.3 15.3 91 -10.4 13.2
04:10 1017 30.03 846 24.98 -9.2 15.4 91 -10.4 13.3
04:15 1017 30.03 846 24.98 -9.2 15.4 91 -10.4 13.3
04:20 1017 30.03 846 24.98 -9.2 15.5 91 -10.4 13.3
04:25 1017 30.03 846 24.98 -9.2 15.5 91 -10.4 13.2
04:30 1017 30.03 846 24.98 -9.2 15.4 91 -10.4 13.2
04:35 1017 30.03 846 24.98 -9.1 15.5 90 -10.4 13.2
04:40 1017 30.03 846 24.98 -9.2 15.4 90 -10.5 13
04:45 1017 30.03 846 24.98 -9.3 15.4 90 -10.6 13
04:50 1017 30.03 846 24.98 -9.3 15.3 91 -10.5 13
04:55 1017 30.03 846 24.98 -9.2 15.4 90 -10.5 13
05:00 1017 30.03 846 24.98 -9.3 15.3 90 -10.6 13
05:05 1017 30.03 846 24.98 -9.3 15.3 91 -10.5 13
05:10 1017 30.03 846 24.98 -9.3 15.4 90 -10.6 12.9
05:15 1017 30.03 847 25.01 -9.3 15.3 91 -10.5 13
05:20 1017 30.03 847 25.01 -9.2 15.4 90 -10.5 13
05:25 1017 30.03 847 25.01 -9.3 15.3 90 -10.6 13
05:30 1017 30.03 847 25.01 -9.3 15.4 90 -10.6 13
05:35 1017 30.03 847 25.01 -9.3 15.3 90 -10.6 13
05:40 1017 30.03 847 25.01 -9.3 15.2 90 -10.6 12.9
05:45 1017 30.03 847 25.01 -9.4 15.1 90 -10.7 12.8
05:50 1017 30.03 847 25.01 -9.4 15.1 91 -10.7 12.8
05:55 1017 30.03 847 25.01 -9.4 15 90 -10.7 12.7
06:00 1017 30.03 847 25.01 -9.5 15 90 -10.8 12.6
06:05 1017 30.03 847 25.01 -9.5 14.9 90 -10.8 12.6
06:10 1017 30.03 847 25.01 -9.5 14.9 90 -10.8 12.5
06:15 1017 30.03 847 25.01 -9.6 14.7 90 -11 12.3
06:20 1017 30.03 847 25.01 -10 14.1 91 -11.1 12
06:25 1018 30.06 847 25.01 -10.1 13.9 92 -11.1 12
06:30 1018 30.06 847 25.01 -10 14.1 92 -11 12.2
06:35 1018 30.06 847 25.01 -9.8 14.3 91 -11 12.2
06:40 1018 30.06 847 25.01 -9.8 14.4 92 -10.9 12.4
06:45 1018 30.06 847 25.01 -9.7 14.6 91 -10.8 12.5
06:50 1018 30.06 847 25.01 -9.6 14.7 91 -10.9 12.4
06:55 1018 30.06 847 25.01 -9.8 14.5 91 -11 12.2
07:00 1018 30.06 847 25.01 -9.8 14.3 91 -11 12.2
07:05 1018 30.06 847 25.01 -9.8 14.3 92 -10.9 12.3
07:10 1018 30.06 847 25.01 -9.8 14.4 91 -10.9 12.4
07:15 1018 30.06 847 25.01 -9.8 14.4 91 -11 12.3
07:20 1018 30.06 847 25.01 -9.8 14.3 91 -11 12.2
07:25 1018 30.06 847 25.01 -9.8 14.3 91 -11 12.1
07:30 1018 30.06 847 25.01 -9.9 14.2 92 -11 12.2
07:35 1018 30.06 847 25.01 -9.7 14.6 91 -10.9 12.4
07:40 1018 30.06 847 25.01 -9.6 14.7 90 -10.9 12.4
07:45 1018 30.06 847 25.01 -9.6 14.8 90 -10.9 12.4
07:50 1018 30.06 847 25.01 -9.5 14.8 90 -10.8 12.5
07:55 1018 30.06 847 25.01 -9.5 15 90 -10.8 12.5
08:00 1018 30.06 847 25.01 -9.6 14.8 90 -11 12.3
08:05 1018 30.06 847 25.01 -9.8 14.5 91 -11 12.2
08:10 1018 30.06 847 25.01 -9.6 14.7 90 -11 12.3
08:15 1018 30.06 847 25.01 -9.5 14.9 90 -10.9 12.4
08:20 1018 30.06 847 25.01 -9.5 14.8 89 -11 12.3
08:25 1018 30.06 847 25.01 -9.6 14.6 90 -10.9 12.3
08:30 1018 30.06 847 25.01 -9.6 14.8 90 -10.9 12.4
08:35 1018 30.06 847 25.01 -9.5 14.9 90 -10.8 12.5
08:40 1018 30.06 847 25.01 -9.3 15.3 90 -10.7 12.7
08:45 1018 30.06 847 25.01 -9.1 15.6 89 -10.6 12.9
08:50 1018 30.06 847 25.01 -9.1 15.6 89 -10.6 12.8
08:55 1018 30.06 847 25.01 -9 15.8 88 -10.6 13
09:00 1018 30.06 847 25.01 -8.8 16.2 88 -10.5 13.1
09:05 1018 30.06 847 25.01 -8.7 16.3 87 -10.5 13.2
09:10 1018 30.06 847 25.01 -8.6 16.6 86 -10.5 13.2
09:15 1018 30.06 847 25.01 -8.4 16.8 86 -10.3 13.4
09:20 1018 30.06 847 25.01 -8.3 17.2 86 -10.1 13.8
09:25 1018 30.06 847 25.01 -8.1 17.5 85 -10.1 13.8
09:30 1018 30.06 847 25.01 -8.1 17.5 85 -10.2 13.7
09:35 1018 30.06 847 25.01 -8 17.5 84 -10.3 13.5
09:40 1018 30.06 847 25.01 -8 17.7 85 -10 14
09:45 1018 30.06 847 25.01 -7.5 18.4 82 -10 13.9
09:50 1018 30.06 847 25.01 -7.3 18.9 82 -9.9 14.1
09:55 1018 30.06 847 25.01 -7.1 19.3 80 -9.9 14.2
10:00 1018 30.06 847 25.01 -7.2 19 81 -10 14
10:05 1018 30.06 847 25.01 -7.1 19.3 79 -10.1 13.8
10:10 1018 30.06 848 25.04 -7.2 19 81 -10 14
10:15 1018 30.06 848 25.04 -6.6 20 77 -10.1 13.9
10:20 1018 30.06 848 25.04 -6.8 19.8 78 -10 14.1
10:25 1018 30.06 848 25.04 -6.9 19.5 79 -10 13.9
10:30 1019 30.09 848 25.04 -6.9 19.5 79 -10 14
10:35 1019 30.09 848 25.04 -7.2 19.1 80 -10.1 13.9
10:40 1019 30.09 848 25.04 -7 19.4 80 -10 14.1
10:45 1019 30.09 848 25.04 -6.7 20 77 -10.1 13.9
10:50 1019 30.09 848 25.04 -6.5 20.3 78 -9.8 14.3
10:55 1019 30.09 848 25.04 -6.3 20.7 76 -9.9 14.2
11:00 1019 30.09 848 25.04 -6.3 20.7 76 -9.9 14.3
11:05 1019 30.09 848 25.04 -6.3 20.7 75 -9.9 14.1
11:10 1019 30.09 848 25.04 -6.3 20.6 77 -9.8 14.4
11:15 1019 30.09 848 25.04 -6.3 20.7 75 -10.1 13.9
11:20 1019 30.09 848 25.04 -6.4 20.4 76 -10 14
11:25 1019 30.09 848 25.04 -6.4 20.4 76 -9.9 14.1
11:30 1019 30.09 848 25.04 -6.5 20.3 76 -10.1 13.8
11:35 1019 30.09 848 25.04 -6.6 20.1 76 -10.1 13.8
11:40 1019 30.09 848 25.04 -6.8 19.8 77 -10.1 13.7
11:45 1019 30.09 848 25.04 -6.7 20 77 -10 14
11:50 1019 30.09 848 25.04 -6.5 20.3 76 -10.1 13.8
11:55 1019 30.09 848 25.04 -6.8 19.8 78 -10 14.1
12:00 1019 30.09 848 25.04 -6.9 19.6 78 -10.1 13.8
12:05 1019 30.09 848 25.04 -6.7 19.9 78 -10 14
12:10 1019 30.09 848 25.04 -6.7 19.9 79 -9.8 14.4
12:15 1019 30.09 848 25.04 -6.6 20.1 77 -10 14
12:20 1018 30.06 848 25.04 -6.4 20.5 76 -10 13.9
12:25 1018 30.06 848 25.04 -6.7 19.9 79 -9.7 14.5
12:30 1018 30.06 847 25.01 -6.5 20.3 75 -10.2 13.7
12:35 1018 30.06 847 25.01 -6.6 20.2 76 -10.1 13.9
12:40 1018 30.06 847 25.01 -6.7 20 77 -10 13.9
12:45 1018 30.06 847 25.01 -6.4 20.5 75 -10.1 13.7
12:50 1018 30.06 847 25.01 -6.3 20.6 77 -9.8 14.4
12:55 1018 30.06 847 25.01 -6.5 20.3 77 -10 14
13:00 1018 30.06 847 25.01 -6 21.3 74 -10 14.1
13:05 1018 30.06 847 25.01 -5.6 21.9 73 -9.7 14.6
13:10 1018 30.06 847 25.01 -5.5 22 75 -9.3 15.2
13:15 1018 30.06 847 25.01 -5.6 22 75 -9.3 15.3
13:20 1018 30.06 847 25.01 -5.4 22.3 74 -9.3 15.3
13:25 1018 30.06 847 25.01 -5 22.9 73 -9.2 15.5
13:30 1018 30.06 847 25.01 -5 23 74 -9 15.8
13:35 1018 30.06 847 25.01 -4.9 23.2 75 -8.7 16.4
13:40 1018 30.06 847 25.01 -4.9 23.2 76 -8.5 16.7
13:45 1018 30.06 847 25.01 -5.5 22.1 77 -9 15.8
13:50 1018 30.06 847 25.01 -5.6 21.9 77 -9 15.8
13:55 1018 30.06 847 25.01 -5.4 22.2 76 -9 15.8
14:00 1018 30.06 847 25.01 -5.1 22.8 76 -8.8 16.2
14:05 1018 30.06 847 25.01 -5.1 22.8 76 -8.7 16.3
14:10 1018 30.06 847 25.01 -5 23 75 -8.8 16.2
14:15 1018 30.06 847 25.01 -4.7 23.5 76 -8.4 16.8
14:20 1018 30.06 847 25.01 -4.7 23.6 74 -8.7 16.4
14:25 1017 30.03 847 25.01 -4.8 23.4 75 -8.6 16.5
14:30 1017 30.03 847 25.01 -4.3 24.3 72 -8.7 16.4
14:35 1017 30.03 847 25.01 -4.4 24.1 73 -8.5 16.7
14:40 1017 30.03 847 25.01 -4.7 23.6 73 -8.7 16.3
14:45 1017 30.03 847 25.01 -4.4 24 73 -8.6 16.5
14:50 1017 30.03 847 25.01 -4 24.7 72 -8.4 16.9
14:55 1017 30.03 847 25.01 -4 24.7 73 -8.2 17.2
15:00 1017 30.03 846 24.98 -4.2 24.5 73 -8.4 17
15:05 1017 30.03 846 24.98 -3.9 25 71 -8.5 16.8
15:10 1017 30.03 846 24.98 -3.7 25.3 71 -8.3 17.1
15:15 1017 30.03 846 24.98 -3.9 24.9 71 -8.4 16.8
15:20 1017 30.03 846 24.98 -3.5 25.7 70 -8.2 17.3
15:25 1017 30.03 846 24.98 -3.2 26.2 69 -8.2 17.2
15:30 1017 30.03 846 24.98 -3.2 26.2 69 -8 17.5
15:35 1017 30.03 846 24.98 -3.5 25.7 71 -8 17.5
15:40 1017 30.03 846 24.98 -3.7 25.4 71 -8.2 17.3
15:45 1017 30.03 847 25.01 -4 24.8 73 -8.2 17.3
15:50 1017 30.03 847 25.01 -4 24.8 72 -8.3 17.1
15:55 1017 30.03 847 25.01 -4.1 24.6 74 -8.1 17.5
16:00 1017 30.03 847 25.01 -4.1 24.6 75 -8 17.7
16:05 1017 30.03 847 25.01 -3.9 25 74 -7.9 17.8
16:10 1017 30.03 847 25.01 -4 24.8 75 -7.9 17.8
16:15 1017 30.03 847 25.01 -4.4 24 76 -8.1 17.4
16:20 1018 30.06 847 25.01 -4.8 23.4 77 -8.3 17.1
16:25 1018 30.06 847 25.01 -5.1 22.8 78 -8.4 16.9
16:30 1018 30.06 847 25.01 -5.2 22.6 79 -8.4 16.9
16:35 1018 30.06 847 25.01 -5.4 22.3 80 -8.3 17
16:40 1018 30.06 847 25.01 -5.6 21.9 81 -8.4 16.9
16:45 1018 30.06 847 25.01 -5.7 21.7 81 -8.5 16.7
16:50 1018 30.06 847 25.01 -5.7 21.7 81 -8.4 16.8
16:55 1018 30.06 847 25.01 -5.7 21.8 81 -8.4 16.8
17:00 1018 30.06 847 25.01 -5.7 21.8 81 -8.4 16.8
17:05 1018 30.06 847 25.01 -5.8 21.6 82 -8.4 16.8
17:10 1017 30.03 847 25.01 -6 21.2 83 -8.5 16.7
17:15 1017 30.03 847 25.01 -6.4 20.5 85 -8.5 16.7
17:20 1017 30.03 847 25.01 -6.6 20.1 86 -8.6 16.5
17:25 1017 30.03 847 25.01 -6.7 20 86 -8.6 16.5
17:30 1018 30.06 847 25.01 -6.7 20 86 -8.6 16.5
17:35 1017 30.03 847 25.01 -6.7 19.9 86 -8.6 16.5
17:40 1017 30.03 847 25.01 -6.8 19.8 87 -8.6 16.5
17:45 1017 30.03 847 25.01 -6.8 19.7 87 -8.6 16.5
17:50 1018 30.06 847 25.01 -6.9 19.6 88 -8.6 16.5
17:55 1017 30.03 847 25.01 -6.8 19.7 88 -8.5 16.6
18:00 1017 30.03 847 25.01 -6.6 20.1 87 -8.5 16.7
18:05 1017 30.03 847 25.01 -6.6 20.1 86 -8.6 16.5
18:10 1017 30.03 847 25.01 -6.9 19.6 87 -8.7 16.3
18:15 1017 30.03 847 25.01 -7.2 19.1 88 -8.9 16.1
18:20 1017 30.03 847 25.01 -7.4 18.8 89 -8.9 16
18:25 1017 30.03 847 25.01 -7.3 18.8 89 -8.8 16.1
18:30 1017 30.03 847 25.01 -7.3 18.9 89 -8.8 16.2
18:35 1017 30.03 847 25.01 -7.2 19 89 -8.8 16.2
18:40 1017 30.03 847 25.01 -7.2 19 88 -8.8 16.1
18:45 1017 30.03 847 25.01 -7.4 18.6 89 -8.9 15.9
18:50 1017 30.03 846 24.98 -7.7 18.2 90 -9 15.7
18:55 1017 30.03 847 25.01 -7.6 18.4 91 -8.8 16.1
19:00 1017 30.03 847 25.01 -7.2 19 89 -8.8 16.2
19:05 1017 30.03 847 25.01 -7 19.3 88 -8.7 16.4
19:10 1017 30.03 847 25.01 -6.9 19.5 87 -8.7 16.3
19:15 1017 30.03 847 25.01 -7 19.4 88 -8.7 16.3
19:20 1017 30.03 847 25.01 -7 19.4 87 -8.8 16.1
19:25 1017 30.03 847 25.01 -7.3 18.8 89 -8.9 16
19:30 1017 30.03 847 25.01 -7.2 19 88 -8.9 16
19:35 1017 30.03 847 25.01 -7.2 19.1 88 -8.9 15.9
19:40 1017 30.03 847 25.01 -7.4 18.7 89 -8.9 15.9
19:45 1017 30.03 847 25.01 -7.4 18.6 89 -8.9 15.9
19:50 1017 30.03 846 24.98 -7.5 18.6 89 -9 15.8
19:55 1017 30.03 846 24.98 -7.5 18.5 89 -9 15.8
20:00 1017 30.03 846 24.98 -7.6 18.4 90 -9 15.8
20:05 1017 30.03 846 24.98 -7.6 18.3 90 -8.9 15.9
20:10 1017 30.03 846 24.98 -7.5 18.5 90 -8.9 16.1
20:15 1017 30.03 846 24.98 -7.4 18.8 89 -8.9 16
20:20 1017 30.03 846 24.98 -7.4 18.6 89 -9 15.9
20:25 1017 30.03 846 24.98 -7.5 18.5 89 -9 15.8
20:30 1017 30.03 846 24.98 -7.6 18.4 90 -9 15.9
20:35 1017 30.03 846 24.98 -7.6 18.3 90 -9 15.9
20:40 1017 30.03 846 24.98 -7.6 18.3 90 -9 15.8
20:45 1017 30.03 846 24.98 -7.6 18.3 90 -9 15.9
20:50 1017 30.03 846 24.98 -7.5 18.5 90 -8.9 16
20:55 1017 30.03 846 24.98 -7.3 18.9 89 -8.8 16.1
21:00 1017 30.03 846 24.98 -7.3 18.9 88 -8.9 16
21:05 1017 30.03 846 24.98 -7.4 18.8 89 -8.9 16
21:10 1017 30.03 846 24.98 -7.3 18.8 89 -8.8 16.1
21:15 1017 30.03 846 24.98 -7.2 19 89 -8.8 16.1
21:20 1017 30.03 846 24.98 -7.3 18.9 89 -8.8 16.1
21:25 1017 30.03 846 24.98 -7.2 19 89 -8.8 16.1
21:30 1017 30.03 846 24.98 -7.2 19 88 -8.9 15.9
21:35 1017 30.03 846 24.98 -7.5 18.4 89 -9.1 15.7
21:40 1017 30.03 846 24.98 -7.7 18.2 90 -9.1 15.6
21:45 1017 30.03 846 24.98 -7.7 18.1 90 -9.1 15.7
21:50 1017 30.03 846 24.98 -7.7 18.1 90 -9 15.7
21:55 1017 30.03 846 24.98 -7.6 18.3 90 -9 15.8
22:00 1017 30.03 846 24.98 -7.4 18.7 88 -9 15.8
22:05 1017 30.03 846 24.98 -7.2 19 88 -8.9 16.1
22:10 1017 30.03 846 24.98 -7.1 19.2 88 -8.8 16.1
22:15 1017 30.03 846 24.98 -7.2 19.1 88 -8.8 16.1
22:20 1017 30.03 846 24.98 -7.1 19.2 88 -8.8 16.2
22:25 1017 30.03 846 24.98 -7.1 19.2 88 -8.8 16.2
22:30 1017 30.03 846 24.98 -6.9 19.6 88 -8.6 16.5
22:35 1017 30.03 846 24.98 -6.8 19.7 87 -8.6 16.5
22:40 1017 30.03 846 24.98 -6.9 19.6 88 -8.6 16.6
22:45 1017 30.03 846 24.98 -6.8 19.8 87 -8.6 16.6
22:50 1017 30.03 846 24.98 -6.8 19.7 87 -8.6 16.5
22:55 1017 30.03 846 24.98 -7.2 19.1 88 -8.8 16.2
23:00 1017 30.03 846 24.98 -7.2 19 88 -8.9 16.1
23:05 1017 30.03 846 24.98 -7.2 19 88 -8.9 16
23:10 1017 30.03 846 24.98 -7.3 18.9 88 -9 15.8
23:15 1017 30.03 846 24.98 -7.6 18.3 90 -9 15.7
23:20 1017 30.03 846 24.98 -7.8 18 91 -9 15.8
23:25 1017 30.03 846 24.98 -7.7 18.2 91 -9 15.8
23:30 1017 30.03 846 24.98 -7.7 18.2 90 -9 15.8
23:35 1017 30.03 846 24.98 -7.6 18.4 90 -8.9 15.9
23:40 1017 30.03 846 24.98 -7.5 18.5 90 -8.9 16
23:45 1017 30.03 846 24.98 -7.5 18.5 88 -9.1 15.6
23:50 1017 30.03 846 24.98 -7.6 18.3 88 -9.2 15.4
23:55 1017 30.03 846 24.98 -7.8 18.1 89 -9.3 15.2
24:00 1017 30.03 846 24.98 -7.8 17.9 89 -9.3 15.2